Time;durP1;ratioP1;P1;durP2;ratioP2;P2;SDS_P1;SDS_P2;PMS_P1;PMS_P2;Temp;Humidity;BMP_temperature;BMP_pressure;BME280_temperature;BME280_humidity;BME280_pressure;Samples;Min_cycle;Max_cycle;Signal;HPM_P1;HPM_P2
2022/09/06 00:00:15;;;;;;;1999.90;999.90;;;;;;;19.75;79.81;98585.69;4156844;28;20204;-50
2022/09/06 00:02:16;;;;;;;1999.90;999.90;;;;;;;19.76;79.95;98595.66;4154309;28;20204;-50
2022/09/06 00:04:18;;;;;;;1999.90;999.90;;;;;;;19.77;79.77;98600.13;4167406;28;20205;-50
2022/09/06 00:06:20;;;;;;;1999.90;999.90;;;;;;;19.76;80.47;98593.72;4169433;28;21025;-50
2022/09/06 00:08:22;;;;;;;1999.90;999.90;;;;;;;19.75;80.34;98591.25;4161280;28;20237;-51
2022/09/06 00:10:24;;;;;;;1999.90;999.90;;;;;;;19.75;80.26;98591.25;4160603;28;20221;-51
2022/09/06 00:12:26;;;;;;;1999.90;999.90;;;;;;;19.76;80.20;98590.97;4188447;28;20199;-50
2022/09/06 00:14:28;;;;;;;1999.90;999.90;;;;;;;19.75;80.48;98596.81;4156101;28;20197;-50
2022/09/06 00:16:30;;;;;;;1999.90;999.90;;;;;;;19.72;80.71;98600.22;4186568;28;20658;-50
2022/09/06 00:18:31;;;;;;;1999.90;999.90;;;;;;;19.70;80.64;98588.56;4170273;28;20307;-50
2022/09/06 00:20:33;;;;;;;1999.90;999.90;;;;;;;19.50;81.70;98595.34;4157635;28;20267;-51
2022/09/06 00:22:36;;;;;;;1999.90;999.90;;;;;;;19.44;81.82;98596.56;4162437;28;20686;-51
2022/09/06 00:24:38;;;;;;;1999.90;999.90;;;;;;;19.47;81.81;98606.22;4153441;28;20738;-51
2022/09/06 00:26:40;;;;;;;1999.90;999.90;;;;;;;19.42;82.09;98620.19;4167243;28;20228;-49
2022/09/06 00:28:42;;;;;;;1999.90;999.90;;;;;;;19.56;81.82;98754.31;4159578;28;20217;-51
2022/09/06 00:30:43;;;;;;;1999.90;999.90;;;;;;;19.18;82.40;98747.13;4169793;28;20197;-50
2022/09/06 00:32:45;;;;;;;1999.90;999.90;;;;;;;19.13;82.45;98763.84;4187678;28;20216;-49
2022/09/06 00:34:46;;;;;;;1999.90;999.90;;;;;;;19.28;81.40;98775.59;4159328;28;20208;-50
2022/09/06 00:36:48;;;;;;;1999.90;999.90;;;;;;;19.36;81.85;98782.38;4171555;28;20200;-49
2022/09/06 00:38:50;;;;;;;1999.90;999.90;;;;;;;19.43;81.73;98799.50;4173109;28;20260;-49
2022/09/06 00:40:52;;;;;;;1999.90;999.90;;;;;;;19.59;82.29;98789.81;4160709;28;20279;-49
2022/09/06 00:42:55;;;;;;;1999.90;999.90;;;;;;;19.64;82.62;98796.13;4186677;28;20196;-50
2022/09/06 00:44:57;;;;;;;1999.90;999.90;;;;;;;19.72;84.21;98787.09;4161896;28;20205;-50
2022/09/06 00:46:58;;;;;;;1999.90;999.90;;;;;;;19.67;85.76;98805.81;4168658;28;20651;-49
2022/09/06 00:49:23;;;;;;;1999.90;999.90;;;;;;;19.61;87.58;98804.22;4153860;28;20330;-50
2022/09/06 00:51:26;;;;;;;1999.90;999.90;;;;;;;19.63;89.28;98800.03;4155766;28;20703;-50
2022/09/06 00:53:29;;;;;;;1155.20;576.22;;;;;;;19.53;90.48;98796.59;4168895;28;20200;-50
2022/09/06 00:55:31;;;;;;;1999.90;999.90;;;;;;;19.46;91.44;98802.50;4169679;28;20294;-50
2022/09/06 00:57:33;;;;;;;1999.90;999.90;;;;;;;19.53;90.85;98793.81;4143286;28;20213;-50
2022/09/06 00:59:37;;;;;;;1265.20;624.40;;;;;;;19.48;92.27;98769.72;4150268;28;20217;-51
2022/09/06 01:01:38;;;;;;;1601.00;791.47;;;;;;;19.51;92.28;98768.31;4181894;28;20212;-49
2022/09/06 01:03:40;;;;;;;1999.90;999.90;;;;;;;19.59;92.71;98770.38;4166093;28;20208;-49
2022/09/06 01:06:00;;;;;;;1999.90;999.90;;;;;;;19.57;92.40;98764.31;4159942;28;20204;-50
2022/09/06 01:08:14;;;;;;;1999.90;999.90;;;;;;;19.39;93.73;98757.63;4187913;28;20215;-49
2022/09/06 01:10:22;;;;;;;364.58;147.45;;;;;;;19.48;93.17;98761.41;4158731;28;20216;-50
2022/09/06 01:12:38;;;;;;;1999.90;999.90;;;;;;;19.49;93.48;98756.66;4170268;28;20208;-49
2022/09/06 01:15:01;;;;;;;1999.90;999.90;;;;;;;19.51;93.43;98757.19;4159783;28;20307;-49
2022/09/06 01:17:21;;;;;;;1999.90;999.90;;;;;;;19.28;94.99;98742.28;4153942;28;20280;-48
2022/09/06 01:19:47;;;;;;;1999.90;999.90;;;;;;;19.01;96.18;98735.72;4151281;28;20213;-48
2022/09/06 01:21:51;;;;;;;745.85;325.35;;;;;;;19.11;96.25;98719.75;4186730;28;20681;-49
2022/09/06 01:24:30;;;;;;;1999.90;999.90;;;;;;;19.15;95.92;98711.63;4154465;28;20208;-49
2022/09/06 01:27:02;;;;;;;1363.10;648.42;;;;;;;18.96;97.70;98705.25;4167134;28;20224;-49
2022/09/06 01:29:15;;;;;;;1739.50;855.13;;;;;;;19.00;97.18;98711.88;4151880;28;20229;-48
2022/09/06 01:31:38;;;;;;;1571.20;751.00;;;;;;;18.92;97.29;98709.78;4160979;28;20244;-48
2022/09/06 01:33:56;;;;;;;1021.35;441.65;;;;;;;18.96;97.29;98708.88;4184233;28;20203;-49
2022/09/06 01:36:01;;;;;;;1810.25;878.45;;;;;;;18.99;97.24;98710.22;4171237;28;20215;-48
2022/09/06 01:38:04;;;;;;;679.22;307.63;;;;;;;19.03;96.86;98716.81;4152042;28;20583;-49
2022/09/06 01:40:06;;;;;;;1726.35;846.72;;;;;;;19.26;96.19;98718.72;4144873;28;20210;-48
2022/09/06 01:42:23;;;;;;;1999.90;999.90;;;;;;;19.22;95.79;98715.72;4161833;28;20807;-49
2022/09/06 01:44:26;;;;;;;1999.90;999.90;;;;;;;19.29;95.00;98720.88;4152775;28;20263;-49
2022/09/06 01:47:02;;;;;;;1999.90;999.90;;;;;;;19.34;94.85;98718.03;4151504;28;20217;-49
2022/09/06 01:49:10;;;;;;;1999.90;999.90;;;;;;;19.36;95.17;98710.22;4132330;28;20233;-48
2022/09/06 01:51:27;;;;;;;1113.82;545.03;;;;;;;19.41;94.59;98708.22;4162424;28;20211;-49
2022/09/06 01:53:43;;;;;;;1999.90;999.90;;;;;;;19.27;95.70;98715.66;4169744;28;20755;-49
2022/09/06 01:56:16;;;;;;;1999.90;999.90;;;;;;;19.11;96.70;98696.75;4150028;28;20201;-48
2022/09/06 01:58:32;;;;;;;1999.90;999.90;;;;;;;18.80;97.72;98681.66;4150893;28;20236;-48
2022/09/06 02:00:44;;;;;;;1999.90;999.90;;;;;;;18.89;97.17;98677.06;4158473;28;20260;-48
2022/09/06 02:02:51;;;;;;;1999.90;999.90;;;;;;;18.75;97.49;98671.47;4170725;28;21008;-48
2022/09/06 02:05:00;;;;;;;753.47;333.60;;;;;;;18.79;97.39;98660.59;4156103;28;20213;-49
2022/09/06 02:07:26;;;;;;;1637.70;809.00;;;;;;;18.85;97.04;98654.66;4155159;28;20212;-49
2022/09/06 02:09:32;;;;;;;1999.90;999.90;;;;;;;18.88;97.00;98656.00;4154025;28;20260;-49
2022/09/06 02:11:47;;;;;;;1999.90;999.90;;;;;;;18.94;96.35;98652.88;4150054;28;20299;-49
2022/09/06 02:14:04;;;;;;;1999.90;999.90;;;;;;;19.02;95.90;98665.22;4157728;28;20204;-49
2022/09/06 02:16:07;;;;;;;1999.90;999.90;;;;;;;18.97;95.87;98652.25;4151949;28;20248;-49
2022/09/06 02:18:12;;;;;;;1999.90;999.90;;;;;;;18.92;95.73;98654.31;4154564;28;20221;-49
2022/09/06 02:20:21;;;;;;;1999.90;999.90;;;;;;;18.98;95.00;98669.75;4158075;28;20201;-50
2022/09/06 02:22:26;;;;;;;1999.90;999.90;;;;;;;18.99;94.17;98676.94;4154489;28;20610;-49
2022/09/06 02:24:30;;;;;;;1999.90;999.90;;;;;;;19.03;94.05;98689.06;4149800;28;20602;-49
2022/09/06 02:26:35;;;;;;;1999.90;999.90;;;;;;;19.07;93.69;98699.28;4152122;28;20204;-50
2022/09/06 02:28:37;;;;;;;1999.90;999.90;;;;;;;19.07;95.12;98688.19;4166546;28;20295;-49
2022/09/06 02:30:42;;;;;;;1999.90;999.90;;;;;;;19.03;94.08;98689.91;4151445;28;20237;-48
2022/09/06 02:32:58;;;;;;;1999.90;999.90;;;;;;;19.03;93.97;98689.91;4186067;28;20311;-49
2022/09/06 02:35:07;;;;;;;1999.90;999.90;;;;;;;19.06;93.89;98682.94;4186615;28;20200;-49
2022/09/06 02:37:10;;;;;;;1999.90;999.90;;;;;;;19.02;94.34;98681.88;4168105;28;20255;-49
2022/09/06 02:39:12;;;;;;;1999.90;999.90;;;;;;;18.99;94.45;98682.50;4150911;28;20229;-49
2022/09/06 02:41:17;;;;;;;1999.90;999.90;;;;;;;18.94;95.92;98674.22;4150342;28;21138;-49
2022/09/06 02:43:19;;;;;;;1999.90;999.90;;;;;;;18.73;97.63;98661.78;4155083;28;20260;-50
2022/09/06 02:45:21;;;;;;;1999.90;999.90;;;;;;;18.58;98.66;98662.00;4160191;28;20204;-49
2022/09/06 02:47:23;;;;;;;1999.90;999.90;;;;;;;18.59;98.74;98671.97;4167990;28;20753;-49
2022/09/06 02:49:25;;;;;;;1344.70;583.65;;;;;;;18.35;100.00;98657.31;4150874;28;20201;-49
2022/09/06 02:51:26;;;;;;;1905.90;791.20;;;;;;;18.17;100.00;98658.88;4154358;28;20212;-50
2022/09/06 02:53:31;;;;;;;1893.35;873.35;;;;;;;18.22;100.00;98666.31;4170427;28;20315;-49
2022/09/06 02:55:33;;;;;;;1962.50;946.67;;;;;;;18.28;100.00;98654.88;4171891;28;20200;-50
2022/09/06 02:57:34;;;;;;;1825.78;809.90;;;;;;;18.15;100.00;98650.06;4157876;28;20331;-49
2022/09/06 02:59:36;;;;;;;1999.90;867.05;;;;;;;18.18;100.00;98643.09;4154131;28;20216;-48
2022/09/06 03:01:38;;;;;;;1930.20;791.88;;;;;;;18.07;100.00;98647.09;4150013;28;20709;-49
2022/09/06 03:03:40;;;;;;;1999.90;894.47;;;;;;;18.09;100.00;98636.56;4156571;28;20209;-49
2022/09/06 03:05:46;;;;;;;1782.32;756.00;;;;;;;18.19;100.00;98639.22;4167534;28;20658;-49
2022/09/06 03:07:48;;;;;;;1922.90;840.42;;;;;;;18.09;100.00;98628.25;4152903;28;20785;-49
2022/09/06 03:09:50;;;;;;;1975.97;869.08;;;;;;;18.09;100.00;98625.47;4169527;28;20211;-50
2022/09/06 03:11:52;;;;;;;1999.90;928.13;;;;;;;17.96;100.00;98631.72;4153666;28;20379;-48
2022/09/06 03:13:53;;;;;;;1999.90;974.20;;;;;;;17.94;100.00;98625.66;4157493;28;20552;-49
2022/09/06 03:15:57;;;;;;;1999.90;928.13;;;;;;;17.89;100.00;98628.47;4165516;28;20196;-49
2022/09/06 03:17:59;;;;;;;1999.90;944.00;;;;;;;18.03;100.00;98624.72;4151572;28;20820;-49
2022/09/06 03:20:01;;;;;;;1583.75;699.60;;;;;;;18.05;100.00;98624.44;4168948;28;20200;-50
2022/09/06 03:22:03;;;;;;;1034.20;477.77;;;;;;;18.14;100.00;98625.41;4157294;28;20635;-50
2022/09/06 03:24:04;;;;;;;1640.32;771.53;;;;;;;18.24;100.00;98625.31;4157761;28;20686;-50
2022/09/06 03:26:07;;;;;;;1104.15;508.65;;;;;;;18.30;100.00;98632.41;4172447;28;20216;-49
2022/09/06 03:28:08;;;;;;;1604.72;780.70;;;;;;;18.22;100.00;98624.75;4173707;28;20589;-50
2022/09/06 03:30:11;;;;;;;1651.70;805.85;;;;;;;18.19;100.00;98622.59;4157185;28;20205;-49
2022/09/06 03:32:12;;;;;;;1154.88;500.20;;;;;;;18.20;100.00;98615.91;4154781;28;20267;-49
2022/09/06 03:34:14;;;;;;;1999.90;999.90;;;;;;;18.21;100.00;98615.63;4148475;28;20205;-50
2022/09/06 03:36:16;;;;;;;1999.90;999.90;;;;;;;18.21;99.28;98612.03;4188272;28;20211;-50
2022/09/06 03:38:17;;;;;;;1999.90;999.90;;;;;;;18.26;98.63;98612.78;4155048;28;20223;-49
2022/09/06 03:40:19;;;;;;;1999.90;999.90;;;;;;;18.32;98.38;98616.34;4154154;28;20749;-50
2022/09/06 03:42:21;;;;;;;1999.90;999.90;;;;;;;18.30;97.48;98621.31;4161796;28;20208;-50
2022/09/06 03:44:22;;;;;;;1999.90;999.90;;;;;;;18.43;97.44;98618.69;4157847;28;20212;-50
2022/09/06 03:46:24;;;;;;;1999.90;999.90;;;;;;;18.35;97.09;98615.75;4156080;28;20205;-50
2022/09/06 03:48:28;;;;;;;1999.90;999.90;;;;;;;18.32;97.07;98617.16;4171376;28;20231;-50
2022/09/06 03:50:29;;;;;;;1999.90;999.90;;;;;;;18.31;96.77;98617.47;4159064;28;20204;-50
2022/09/06 03:52:31;;;;;;;1999.90;999.90;;;;;;;18.31;95.56;98626.59;4170303;28;20209;-50
2022/09/06 03:54:33;;;;;;;1999.90;999.90;;;;;;;18.32;95.62;98627.44;4154884;28;20640;-50
2022/09/06 03:56:35;;;;;;;1999.90;999.90;;;;;;;18.33;95.47;98629.09;4156405;28;20264;-50
2022/09/06 03:58:36;;;;;;;1999.90;999.90;;;;;;;18.28;95.88;98621.63;4157198;28;20228;-50
2022/09/06 04:00:38;;;;;;;1999.90;999.90;;;;;;;18.22;96.16;98621.97;4154179;28;20251;-49
2022/09/06 04:02:40;;;;;;;1999.90;999.90;;;;;;;18.19;95.55;98623.41;4163785;28;20580;-49
2022/09/06 04:04:41;;;;;;;1999.90;999.90;;;;;;;18.17;95.13;98633.13;4156584;28;20205;-49
2022/09/06 04:06:43;;;;;;;1999.90;999.90;;;;;;;18.17;95.13;98635.88;4159859;28;20284;-50
2022/09/06 04:08:45;;;;;;;1999.90;999.90;;;;;;;18.19;95.10;98639.22;4162787;28;20610;-50
2022/09/06 04:10:49;;;;;;;1999.90;999.90;;;;;;;18.18;95.24;98632.03;4174379;28;20669;-49
2022/09/06 04:12:51;;;;;;;1999.90;999.90;;;;;;;18.13;95.27;98634.84;4187990;28;20577;-49
2022/09/06 04:14:53;;;;;;;1999.90;999.90;;;;;;;18.12;94.87;98635.97;4170255;28;20192;-49
2022/09/06 04:16:55;;;;;;;1999.90;999.90;;;;;;;18.08;94.80;98627.44;4161479;28;20205;-49
2022/09/06 04:18:58;;;;;;;1999.90;999.90;;;;;;;18.07;94.67;98630.50;4169478;28;20231;-50
2022/09/06 04:21:00;;;;;;;1999.90;999.90;;;;;;;18.04;94.74;98636.63;4188290;28;20230;-49
2022/09/06 04:23:02;;;;;;;1999.90;999.90;;;;;;;18.01;93.90;98620.59;4160527;28;20201;-49
2022/09/06 04:25:05;;;;;;;1999.90;999.90;;;;;;;17.98;94.36;98629.50;4160816;28;20566;-49
2022/09/06 04:27:07;;;;;;;1999.90;999.90;;;;;;;17.94;94.12;98625.66;4170091;28;20725;-49
2022/09/06 04:29:08;;;;;;;1999.90;999.90;;;;;;;17.90;94.21;98628.19;4160268;28;20251;-49
2022/09/06 04:31:10;;;;;;;1999.90;999.90;;;;;;;17.90;93.78;98624.59;4162899;28;20204;-49
2022/09/06 04:33:12;;;;;;;1999.90;999.90;;;;;;;17.88;93.97;98621.28;4169860;28;20681;-49
2022/09/06 04:35:13;;;;;;;1999.90;999.90;;;;;;;17.90;94.20;98624.59;4170461;28;20200;-50
2022/09/06 04:37:18;;;;;;;1999.90;999.90;;;;;;;17.52;98.24;98623.63;4185330;28;20214;-49
2022/09/06 04:39:20;;;;;;;1999.90;999.90;;;;;;;17.56;98.02;98629.38;4158072;28;20642;-48
2022/09/06 04:41:22;;;;;;;1999.90;999.90;;;;;;;17.60;96.95;98636.81;4162084;28;20255;-49
2022/09/06 04:43:24;;;;;;;1999.90;999.90;;;;;;;17.67;96.57;98642.03;4139939;28;20223;-49
2022/09/06 04:45:25;;;;;;;1999.90;999.90;;;;;;;17.82;96.06;98644.63;4155021;28;20209;-49
2022/09/06 04:47:27;;;;;;;1999.90;999.90;;;;;;;17.73;96.44;98635.31;4155027;28;20268;-49
2022/09/06 04:49:29;;;;;;;1999.90;999.90;;;;;;;17.68;95.75;98638.97;4186208;28;20220;-50
2022/09/06 04:51:31;;;;;;;1999.90;999.90;;;;;;;17.68;95.25;98638.13;4172119;28;20259;-49
2022/09/06 04:53:32;;;;;;;1999.90;999.90;;;;;;;17.67;95.37;98630.94;4169837;28;20208;-49
2022/09/06 04:55:34;;;;;;;1999.90;999.90;;;;;;;17.64;96.09;98643.44;4169389;28;20323;-49
2022/09/06 04:57:36;;;;;;;1578.32;780.15;;;;;;;17.56;98.00;98646.00;4169086;28;20224;-49
2022/09/06 04:59:44;;;;;;;1594.18;792.28;;;;;;;17.47;98.34;98637.53;4161665;28;20580;-49
2022/09/06 05:01:46;;;;;;;1999.90;999.90;;;;;;;17.30;100.00;98641.78;4161246;28;20201;-49
2022/09/06 05:03:47;;;;;;;1999.90;999.90;;;;;;;17.30;100.00;98639.84;4152782;28;20213;-49
2022/09/06 05:05:49;;;;;;;1999.90;999.90;;;;;;;17.36;99.29;98635.94;4151467;28;20209;-50
2022/09/06 05:07:52;;;;;;;1999.90;999.90;;;;;;;17.41;98.90;98638.69;4169552;28;20224;-50
2022/09/06 05:09:53;;;;;;;1999.90;999.90;;;;;;;17.44;98.29;98642.81;4168655;28;20272;-49
2022/09/06 05:11:55;;;;;;;1999.90;999.90;;;;;;;17.52;97.93;98642.19;4153838;28;20209;-50
2022/09/06 05:13:57;;;;;;;1999.90;999.90;;;;;;;17.27;99.90;98656.22;4155860;28;20216;-50
2022/09/06 05:16:00;;;;;;;1999.90;999.90;;;;;;;17.21;100.00;98665.66;4170983;28;20200;-49
2022/09/06 05:18:03;;;;;;;1655.15;821.65;;;;;;;17.18;100.00;98663.50;4153332;28;20244;-49
2022/09/06 05:20:06;;;;;;;1999.90;999.90;;;;;;;17.23;100.00;98668.94;4159636;28;20201;-49
2022/09/06 05:22:10;;;;;;;1644.50;814.90;;;;;;;17.42;99.31;98678.22;4161816;28;20209;-50
2022/09/06 05:24:11;;;;;;;1999.90;999.90;;;;;;;17.37;99.04;98686.56;4167748;28;20561;-50
2022/09/06 05:26:13;;;;;;;1999.90;999.90;;;;;;;17.38;98.85;98674.41;4183350;28;20259;-50
2022/09/06 05:28:16;;;;;;;1999.90;999.90;;;;;;;17.38;98.69;98679.94;4137138;28;20615;-50
2022/09/06 05:30:18;;;;;;;1999.90;999.90;;;;;;;17.45;98.27;98677.66;4140835;28;20217;-50
2022/09/06 05:32:20;;;;;;;1999.90;999.90;;;;;;;17.51;98.12;98676.50;4139106;28;20819;-49
2022/09/06 05:34:21;;;;;;;1999.90;999.90;;;;;;;17.51;97.79;98676.50;4152000;28;20212;-50
2022/09/06 05:36:24;;;;;;;1999.90;999.90;;;;;;;17.52;97.60;98690.03;4158681;28;20216;-49
2022/09/06 05:38:26;;;;;;;1999.90;999.90;;;;;;;17.58;97.16;98688.06;4159052;28;20741;-50
2022/09/06 05:40:30;;;;;;;1999.90;999.90;;;;;;;17.64;97.65;98681.38;4155835;28;20256;-49
2022/09/06 05:42:32;;;;;;;1999.90;999.90;;;;;;;17.47;99.70;98680.97;4160419;28;20201;-50
2022/09/06 05:44:35;;;;;;;1999.90;999.90;;;;;;;17.39;100.00;98695.44;4167735;28;20211;-49
2022/09/06 05:46:44;;;;;;;1610.80;802.13;;;;;;;17.46;99.77;98684.84;4168430;28;20208;-49
2022/09/06 05:48:56;;;;;;;1999.90;999.90;;;;;;;17.54;99.00;98693.34;4151826;28;20225;-50
2022/09/06 05:51:06;;;;;;;1999.90;999.90;;;;;;;17.64;98.63;98684.13;4153143;28;20217;-49
2022/09/06 05:53:08;;;;;;;722.22;326.35;;;;;;;17.73;98.77;98685.16;4167203;28;20217;-49
2022/09/06 05:55:09;;;;;;;1411.55;694.38;;;;;;;17.68;99.83;98693.50;4153565;28;20205;-50
2022/09/06 05:57:11;;;;;;;1652.18;717.92;;;;;;;17.87;100.00;98681.41;4159277;28;20236;-50
2022/09/06 05:59:13;;;;;;;1717.72;851.55;;;;;;;17.78;100.00;98680.38;4154012;28;20962;-49
2022/09/06 06:01:18;;;;;;;1999.90;999.90;;;;;;;17.90;99.89;98686.34;4153488;28;20213;-49
2022/09/06 06:03:19;;;;;;;1999.90;999.90;;;;;;;17.89;99.24;98684.69;4161559;28;20251;-50
2022/09/06 06:05:21;;;;;;;669.45;311.90;;;;;;;17.89;99.74;98683.88;4159792;28;20212;-50
2022/09/06 06:07:23;;;;;;;1662.55;824.67;;;;;;;17.94;99.55;98694.88;4158359;28;20204;-50
2022/09/06 06:09:25;;;;;;;1685.55;837.25;;;;;;;17.99;99.85;98705.91;4156737;28;20260;-49
2022/09/06 06:11:27;;;;;;;1720.15;849.92;;;;;;;17.91;100.00;98706.56;4160600;28;20205;-49
2022/09/06 06:13:33;;;;;;;1999.90;999.90;;;;;;;17.78;100.00;98698.94;4170701;28;20212;-50
2022/09/06 06:15:35;;;;;;;1168.13;531.15;;;;;;;17.68;100.00;98699.03;4168327;28;20733;-50
2022/09/06 06:17:37;;;;;;;1871.93;887.17;;;;;;;17.75;100.00;98700.34;4148412;28;20263;-49
2022/09/06 06:19:39;;;;;;;1219.00;552.88;;;;;;;17.61;100.00;98704.06;4169344;28;20256;-49
2022/09/06 06:21:42;;;;;;;1414.63;627.47;;;;;;;17.69;100.00;98703.44;4150469;28;20217;-49
2022/09/06 06:23:44;;;;;;;1094.20;502.10;;;;;;;17.67;100.00;98708.44;4156326;28;20209;-49
2022/09/06 06:25:46;;;;;;;1795.65;850.25;;;;;;;17.49;100.00;98710.00;4167113;28;20195;-50
2022/09/06 06:27:48;;;;;;;1586.97;718.03;;;;;;;17.48;100.00;98704.75;4152224;28;20224;-49
2022/09/06 06:29:51;;;;;;;1832.13;875.50;;;;;;;17.53;100.00;98699.19;4185852;28;20218;-49
2022/09/06 06:31:52;;;;;;;1319.68;600.13;;;;;;;17.59;100.00;98703.56;4183065;28;20286;-49
2022/09/06 06:33:55;;;;;;;1999.90;999.90;;;;;;;17.75;100.00;98697.59;4151206;28;20312;-49
2022/09/06 06:36:03;;;;;;;1155.95;544.85;;;;;;;17.89;100.00;98706.00;4168469;28;20252;-49
2022/09/06 06:38:05;;;;;;;1819.05;778.97;;;;;;;17.95;100.00;98705.69;4170394;28;20220;-49
2022/09/06 06:40:07;;;;;;;1701.40;744.28;;;;;;;18.04;100.00;98703.09;4169780;28;20212;-49
2022/09/06 06:42:10;;;;;;;1924.43;835.10;;;;;;;18.16;100.00;98703.50;4172804;28;20304;-49
2022/09/06 06:44:11;;;;;;;1684.40;808.92;;;;;;;18.22;100.00;98699.56;4150641;28;20205;-48
2022/09/06 06:46:15;;;;;;;1640.38;783.80;;;;;;;18.25;100.00;98693.44;4186188;28;20223;-49
2022/09/06 06:48:17;;;;;;;1999.90;999.90;;;;;;;18.29;100.00;98698.09;4167788;28;20228;-49
2022/09/06 06:50:19;;;;;;;753.65;333.35;;;;;;;18.34;100.00;98697.22;4156852;28;20219;-49
2022/09/06 06:52:20;;;;;;;919.00;440.50;;;;;;;18.36;100.00;98700.53;4152706;28;20553;-49
2022/09/06 06:54:22;;;;;;;1840.47;899.72;;;;;;;18.36;100.00;98697.75;4151100;28;20290;-48
2022/09/06 06:56:31;;;;;;;1738.32;858.53;;;;;;;18.32;100.00;98693.94;4159521;28;20219;-49
2022/09/06 06:58:32;;;;;;;1757.70;862.47;;;;;;;18.38;100.00;98698.31;4170082;28;20223;-49
2022/09/06 07:00:34;;;;;;;1636.25;791.58;;;;;;;18.48;100.00;98681.53;4164243;28;20340;-49
2022/09/06 07:02:36;;;;;;;1850.32;781.55;;;;;;;18.61;100.00;98692.72;4155376;28;20205;-49
2022/09/06 07:04:38;;;;;;;1580.70;753.75;;;;;;;18.67;100.00;98693.47;4167628;28;20208;-54
2022/09/06 07:06:51;;;;;;;1031.72;483.52;;;;;;;18.74;99.43;98697.53;4154527;28;20205;-49
2022/09/06 07:09:13;;;;;;;1424.05;690.72;;;;;;;18.81;99.70;98697.16;4183212;28;20222;-49
2022/09/06 07:11:16;;;;;;;1721.05;845.60;;;;;;;18.89;99.68;98699.25;4155121;28;20935;-49
2022/09/06 07:13:22;;;;;;;1676.05;831.92;;;;;;;18.82;98.91;98698.81;4152802;28;20326;-49
2022/09/06 07:15:24;;;;;;;903.13;403.63;;;;;;;18.95;99.39;98704.44;4152247;28;20208;-50
2022/09/06 07:17:25;;;;;;;1428.22;688.22;;;;;;;19.03;99.31;98697.38;4156074;28;20783;-49
2022/09/06 07:19:30;;;;;;;1736.28;855.53;;;;;;;19.08;98.67;98700.09;4166687;28;20240;-49
2022/09/06 07:21:52;;;;;;;1999.90;999.90;;;;;;;19.15;98.99;98700.53;4155675;28;20617;-49
2022/09/06 07:23:54;;;;;;;1999.90;999.90;;;;;;;19.18;99.03;98697.19;4156877;28;20327;-50
2022/09/06 07:26:06;;;;;;;1666.95;828.75;;;;;;;19.13;98.50;98706.38;4165522;28;20617;-50
2022/09/06 07:28:08;;;;;;;1450.78;622.60;;;;;;;19.37;99.37;98700.78;4181647;28;20230;-49
2022/09/06 07:30:10;;;;;;;1865.93;909.45;;;;;;;19.54;97.78;98701.88;4153766;28;20208;-50
2022/09/06 07:32:12;;;;;;;1999.90;999.90;;;;;;;19.70;96.90;98705.19;4150721;28;20510;-53
2022/09/06 07:34:28;;;;;;;1175.45;558.13;;;;;;;20.06;95.33;98692.38;4149120;28;20252;-51
2022/09/06 07:36:39;;;;;;;1372.55;659.75;;;;;;;20.64;92.61;98687.84;4165953;28;20310;-52
2022/09/06 07:38:41;;;;;;;1999.90;999.90;;;;;;;20.94;91.57;98701.09;4159366;28;20220;-52
2022/09/06 07:40:52;;;;;;;1999.90;999.90;;;;;;;20.52;91.29;98695.88;4170475;28;20534;-53
2022/09/06 07:42:57;;;;;;;1999.90;999.90;;;;;;;20.57;90.20;98693.81;4152443;28;20200;-51
2022/09/06 07:44:59;;;;;;;1999.90;999.90;;;;;;;20.81;90.17;98697.19;4150963;28;20267;-53
2022/09/06 07:47:05;;;;;;;1999.90;999.90;;;;;;;21.11;89.05;98704.06;4154374;28;20205;-52
2022/09/06 07:49:26;;;;;;;1999.90;999.90;;;;;;;21.43;88.32;98699.09;4168566;28;20232;-51
2022/09/06 07:51:34;;;;;;;1999.90;999.90;;;;;;;21.91;86.82;98696.53;4169583;28;20231;-51
2022/09/06 07:53:37;;;;;;;1999.90;999.90;;;;;;;21.92;86.75;98698.97;4143733;28;20229;-52
2022/09/06 07:55:39;;;;;;;1999.90;999.90;;;;;;;22.26;84.16;98701.13;4164582;28;20200;-51
2022/09/06 07:57:40;;;;;;;1999.90;999.90;;;;;;;22.65;82.54;98701.94;4158676;28;20251;-51
2022/09/06 07:59:42;;;;;;;1999.90;999.90;;;;;;;22.93;82.03;98696.94;4183978;28;20303;-52
2022/09/06 08:01:46;;;;;;;1999.90;999.90;;;;;;;23.17;80.35;98697.34;4155135;28;20204;-52
2022/09/06 08:03:48;;;;;;;1999.90;999.90;;;;;;;23.21;79.67;98699.16;4158346;28;20208;-51
2022/09/06 08:05:49;;;;;;;1999.90;999.90;;;;;;;22.85;80.76;98692.16;4142048;28;20204;-51
2022/09/06 08:08:11;;;;;;;1999.90;999.90;;;;;;;23.07;80.03;98703.19;4157434;28;20259;-51
2022/09/06 08:10:33;;;;;;;1999.90;999.90;;;;;;;22.91;80.24;98693.66;4160128;28;20279;-52
2022/09/06 08:12:34;;;;;;;1999.90;999.90;;;;;;;23.35;78.53;98698.97;4169340;28;20705;-52
2022/09/06 08:14:36;;;;;;;1999.90;999.90;;;;;;;23.52;78.45;98704.56;4170564;28;20203;-52
2022/09/06 08:16:38;;;;;;;1999.90;999.90;;;;;;;23.68;79.82;98703.75;4156534;28;20760;-53
2022/09/06 08:18:40;;;;;;;1999.90;999.90;;;;;;;23.68;78.12;98692.56;4176341;28;20226;-51
2022/09/06 08:20:41;;;;;;;1999.90;999.90;;;;;;;23.70;78.42;98700.63;4148539;28;20240;-52
2022/09/06 08:22:43;;;;;;;1999.90;999.90;;;;;;;23.74;78.72;98700.44;4151544;28;20676;-52
2022/09/06 08:24:45;;;;;;;1999.90;999.90;;;;;;;23.73;78.20;98697.16;4173432;28;20243;-52
2022/09/06 08:26:46;;;;;;;1999.90;999.90;;;;;;;24.03;78.47;98700.59;4164997;28;20262;-51
2022/09/06 08:28:57;;;;;;;1999.90;999.90;;;;;;;24.16;76.83;98702.38;4159328;28;20228;-51
2022/09/06 08:31:10;;;;;;;1999.90;999.90;;;;;;;24.20;76.33;98703.31;4156216;28;20203;-53
2022/09/06 08:33:12;;;;;;;1999.90;999.90;;;;;;;24.44;76.66;98706.38;4154673;28;20208;-52
2022/09/06 08:35:14;;;;;;;1999.90;999.90;;;;;;;24.44;75.77;98700.78;4155779;28;20223;-53
2022/09/06 08:37:15;;;;;;;1999.90;999.90;;;;;;;24.56;76.66;98703.72;4153299;28;20244;-50
2022/09/06 08:39:17;;;;;;;1999.90;999.90;;;;;;;24.22;74.95;98708.59;4152747;28;21042;-47
2022/09/06 08:41:30;;;;;;;1999.90;999.90;;;;;;;25.14;71.92;98719.69;4150856;28;20463;-59
2022/09/06 08:43:32;;;;;;;3.08;2.83;;;;;;;25.89;70.66;98739.94;4168611;28;20210;-61
2022/09/06 08:45:33;;;;;;;2.85;2.47;;;;;;;28.56;63.08;98738.19;4137547;28;20224;-61
2022/09/06 08:47:35;;;;;;;2.50;2.30;;;;;;;35.05;49.54;98736.50;4154811;28;20688;-53
2022/09/06 08:49:45;;;;;;;2.40;2.20;;;;;;;34.51;46.55;98711.22;4168384;28;20220;-44
2022/09/06 08:52:17;;;;;;;3.28;2.80;;;;;;;28.80;59.11;98698.59;4174885;28;20258;-47
2022/09/06 08:54:33;;;;;;;3.20;2.05;;;;;;;26.98;65.92;98702.47;4165720;28;20209;-47
2022/09/06 08:56:44;;;;;;;2.83;2.35;;;;;;;26.81;66.62;98697.13;4183828;28;20202;-47
2022/09/06 08:59:06;;;;;;;4.50;2.67;;;;;;;26.45;69.09;98699.06;4138564;28;20260;-46
2022/09/06 09:01:21;;;;;;;2.78;2.33;;;;;;;25.87;70.16;98694.53;4186763;28;20195;-49
2022/09/06 09:03:32;;;;;;;4.03;3.67;;;;;;;25.11;72.44;98693.19;4152484;28;20203;-50
2022/09/06 09:05:35;;;;;;;4.13;3.70;;;;;;;24.61;77.06;98689.53;4158545;28;20213;-49
2022/09/06 09:07:45;;;;;;;3.33;3.03;;;;;;;25.01;74.41;98687.16;4152384;28;20625;-49
2022/09/06 09:09:47;;;;;;;3.95;2.90;;;;;;;25.38;73.31;98681.47;4154406;28;20213;-49
2022/09/06 09:11:50;;;;;;;3.20;2.97;;;;;;;25.56;72.57;98690.53;4156000;28;20227;-50
2022/09/06 09:14:03;;;;;;;7.00;2.85;;;;;;;26.03;71.23;98686.31;4154359;28;20244;-49
2022/09/06 09:16:05;;;;;;;3.17;2.58;;;;;;;26.28;70.84;98680.44;4153669;28;20208;-50